SKSP/ADZ METAR and TAF weather

Enter ICAO airport designator
Station Type Date Time Source
SKSP METAR 2018/12/19 03:00 UTC NOAA

SKSP 190300Z 06007KT 040V130 9999 FEW017 27/23 A2994


Station Type Date Time Source
SKSP Decoded METAR 2018/12/19 03:00 UTC NOAA

San Andres Isla / Sesquicentenario, Colombia (SKSP) 12-35N 081-43W 6M
Dec 18, 2018 - 10:00 PM EST / 2018.12.19 0300 UTC
Wind: from the ENE (060 degrees) at 8 MPH (7 KT) (direction variable):0
Visibility: greater than 7 mile(s):0
Sky conditions: mostly clear
Temperature: 80 F (27 C)
Dew Point: 73 F (23 C)
Relative Humidity: 78%
Pressure (altimeter): 29.94 in. Hg (1013 hPa)
ob: SKSP 190300Z 06007KT 040V130 9999 FEW017 27/23 A2994
cycle: 3

Station Type Date Time Source
SKSP TAF 2018/12/18 18:46 UTC NOAA

TAF SKSP 181700Z 1818/1918 08010KT 9999 SCT018 TX32/1819Z TN26/1911Z


Example: see airport list